Time;durP1;ratioP1;P1;durP2;ratioP2;P2;SDS_P1;SDS_P2;PMS_P1;PMS_P2;Temp;Humidity;BMP_temperature;BMP_pressure;BME280_temperature;BME280_humidity;BME280_pressure;Samples;Min_cycle;Max_cycle;Signal;HPM_P1;HPM_P2
2023/02/01 00:01:20;;;;;;;;;;;;;;;1.63;100.00;97192.63;5076544;28;20398;-71
2023/02/01 00:03:46;;;;;;;;;;;;;;;1.63;100.00;97192.63;5076367;28;19959;-71
2023/02/01 00:06:11;;;;;;;;;;;;;;;1.66;100.00;97195.88;5075916;28;19951;-71
2023/02/01 00:08:37;;;;;;;;;;;;;;;1.69;100.00;97187.84;5076629;28;20076;-71
2023/02/01 00:11:04;;;;;;;;;;;;;;;1.71;100.00;97186.75;5076661;28;19961;-71
2023/02/01 00:13:31;;;;;;;;;;;;;;;1.73;100.00;97186.59;5076229;28;19961;-72
2023/02/01 00:16:04;;;;;;;;;;;;;;;1.73;100.00;97176.25;5076230;28;20327;-71
2023/02/01 00:18:30;;;;;;;;;;;;;;;1.70;100.00;97169.63;5076113;28;20412;-72
2023/02/01 00:20:55;;;;;;;;;;;;;;;1.67;100.00;97177.66;5076073;28;19953;-72
2023/02/01 00:23:21;;;;;;;;;;;;;;;1.62;100.00;97178.09;5075874;28;19966;-71
2023/02/01 00:25:47;;;;;;;;;;;;;;;1.59;100.00;97173.19;5075191;28;19999;-72
2023/02/01 00:28:13;;;;;;;;;;;;;;;1.59;100.00;97173.19;5076351;28;19965;-71
2023/02/01 00:30:39;;;;;;;;;;;;;;;1.58;100.00;97168.97;5075731;28;19954;-72
2023/02/01 00:33:05;;;;;;;;;;;;;;;1.59;100.00;97182.72;5075622;28;20047;-71
2023/02/01 00:35:31;;;;;;;;;;;;;;;1.58;100.00;97179.31;5075031;28;19950;-71
2023/02/01 00:37:58;;;;;;;;;;;;;;;1.58;100.00;97170.75;5075838;28;19956;-71
2023/02/01 00:40:24;;;;;;;;;;;;;;;1.60;100.00;97169.66;5075860;28;19950;-71
2023/02/01 00:42:50;;;;;;;;;;;;;;;1.62;100.00;97154.81;5075442;28;20492;-71
2023/02/01 00:45:16;;;;;;;;;;;;;;;1.63;100.00;97153.84;5075672;28;19980;-74
2023/02/01 00:47:42;;;;;;;;;;;;;;;1.62;100.00;97144.47;5075561;28;19967;-71
2023/02/01 00:50:08;;;;;;;;;;;;;;;1.60;100.00;97137.81;5075424;28;19961;-71
2023/02/01 00:52:34;;;;;;;;;;;;;;;1.57;100.00;97130.34;5075841;28;20318;-71
2023/02/01 00:55:00;;;;;;;;;;;;;;;1.58;100.00;97143.13;5075460;28;19954;-72
2023/02/01 00:57:25;;;;;;;;;;;;;;;1.61;100.00;97129.91;5075320;28;19946;-72
2023/02/01 00:59:51;;;;;;;;;;;;;;;1.59;100.00;97129.22;5075466;28;19981;-73
2023/02/01 01:02:17;;;;;;;;;;;;;;;1.55;100.00;97135.66;5075144;28;20379;-72
2023/02/01 01:04:43;;;;;;;;;;;;;;;1.55;100.00;97127.09;5074055;28;20330;-72
2023/02/01 01:07:09;;;;;;;;;;;;;;;1.53;100.00;97129.00;5075400;28;19960;-72
2023/02/01 01:09:35;;;;;;;;;;;;;;;1.52;100.00;97138.53;5075460;28;19950;-72
2023/02/01 01:12:02;;;;;;;;;;;;;;;1.55;100.00;97138.22;5075175;28;19954;-72
2023/02/01 01:14:28;;;;;;;;;;;;;;;1.57;100.00;97133.72;5074902;28;19959;-73
2023/02/01 01:16:54;;;;;;;;;;;;;;;1.60;100.00;97137.81;5075130;28;19964;-72
2023/02/01 01:19:20;;;;;;;;;;;;;;;1.63;100.00;97138.31;5075280;28;19952;-72
2023/02/01 01:21:46;;;;;;;;;;;;;;;1.64;100.00;97144.34;5075098;28;19955;-72
2023/02/01 01:24:12;;;;;;;;;;;;;;;1.65;100.00;97134.78;5074239;28;20017;-72
2023/02/01 01:26:38;;;;;;;;;;;;;;;1.69;100.00;97133.56;5074757;28;20005;-72
2023/02/01 01:29:03;;;;;;;;;;;;;;;1.70;100.00;97112.72;5074851;28;19947;-72
2023/02/01 01:31:30;;;;;;;;;;;;;;;1.68;100.00;97119.81;5075175;28;20033;-72
2023/02/01 01:33:57;;;;;;;;;;;;;;;1.68;100.00;97108.63;5074642;28;19945;-72
2023/02/01 01:36:24;;;;;;;;;;;;;;;1.69;100.00;97107.69;5074722;28;19947;-73
2023/02/01 01:38:50;;;;;;;;;;;;;;;1.68;100.00;97101.72;5074957;28;20398;-72
2023/02/01 01:41:20;;;;;;;;;;;;;;;1.69;100.00;97107.69;5074472;28;19957;-72
2023/02/01 01:43:51;;;;;;;;;;;;;;;1.70;100.00;97110.16;5074327;28;19969;-72
2023/02/01 01:46:21;;;;;;;;;;;;;;;1.70;100.00;97104.97;5074823;28;19950;-72
2023/02/01 01:49:08;;;;;;;;;;;;;;;1.69;100.00;97108.50;5074913;28;19973;-72
2023/02/01 01:51:38;;;;;;;;;;;;;;;1.69;100.00;97116.25;5074508;28;20327;-73
2023/02/01 01:54:12;;;;;;;;;;;;;;;1.69;100.00;97111.09;5074289;28;19948;-73
2023/02/01 01:56:38;;;;;;;;;;;;;;;1.69;100.00;97107.69;5074096;28;19941;-72
2023/02/01 01:59:05;;;;;;;;;;;;;;;1.68;100.00;97093.97;5074475;28;20398;-72
2023/02/01 02:01:31;;;;;;;;;;;;;;;1.70;100.00;97101.56;5074069;28;20390;-73
2023/02/01 02:03:58;;;;;;;;;;;;;;;1.73;100.00;97101.28;5074076;28;19959;-73
2023/02/01 02:06:36;;;;;;;;;;;;;;;1.74;100.00;97101.13;5074070;28;19951;-73
2023/02/01 02:09:03;;;;;;;;;;;;;;;1.77;100.00;97094.84;5074276;28;19948;-73
2023/02/01 02:11:29;;;;;;;;;;;;;;;1.80;100.00;97092.78;5073977;28;19951;-73
2023/02/01 02:13:55;;;;;;;;;;;;;;;1.78;100.00;97080.94;5074254;28;20356;-73
2023/02/01 02:16:39;;;;;;;;;;;;;;;1.75;100.00;97083.84;5073752;28;19956;-73
2023/02/01 02:19:23;;;;;;;;;;;;;;;1.74;100.00;97084.78;5073974;28;19944;-72
2023/02/01 02:22:09;;;;;;;;;;;;;;;1.76;100.00;97085.47;5062395;28;19942;-72
2023/02/01 02:24:35;;;;;;;;;;;;;;;1.78;100.00;97089.50;5073721;28;19942;-73
2023/02/01 02:27:25;;;;;;;;;;;;;;;1.78;100.00;97080.94;5072973;28;20367;-72
2023/02/01 02:29:54;;;;;;;;;;;;;;;1.79;100.00;97083.41;5061991;28;19949;-72
2023/02/01 02:32:23;;;;;;;;;;;;;;;1.81;100.00;97084.06;5072584;28;20322;-72
2023/02/01 02:34:57;;;;;;;;;;;;;;;1.83;100.00;97082.16;5073546;28;19946;-72
2023/02/01 02:37:52;;;;;;;;;;;;;;;1.84;100.00;97077.78;5073702;28;19951;-73
2023/02/01 02:40:20;;;;;;;;;;;;;;;1.85;100.00;97078.59;5019203;28;19959;-72
2023/02/01 02:48:54;;;;;;;;;;;;;;;1.82;100.00;97074.53;5072820;28;20214;-73
2023/02/01 03:05:17;;;;;;;;;;;;;;;1.81;100.00;97059.97;5073649;28;19942;-72
2023/02/01 03:07:45;;;;;;;;;;;;;;;1.81;100.00;97063.38;5073606;28;20022;-72
2023/02/01 03:10:24;;;;;;;;;;;;;;;1.83;100.00;97069.22;5073215;28;19940;-72
2023/02/01 03:12:56;;;;;;;;;;;;;;;1.84;100.00;97059.69;5073376;28;19992;-72
2023/02/01 03:15:33;;;;;;;;;;;;;;;1.88;100.00;97062.78;5073444;28;19970;-72
2023/02/01 03:18:01;;;;;;;;;;;;;;;1.88;100.00;97050.66;5073102;28;19948;-72
2023/02/01 03:20:29;;;;;;;;;;;;;;;1.89;100.00;97052.31;5073142;28;20296;-72
2023/02/01 03:22:56;;;;;;;;;;;;;;;1.89;100.00;97054.06;5073277;28;19946;-72
2023/02/01 03:25:24;;;;;;;;;;;;;;;1.87;100.00;97059.41;5073191;28;19944;-72
2023/02/01 03:27:56;;;;;;;;;;;;;;;1.89;100.00;97065.25;5073022;28;19956;-72
2023/02/01 03:30:25;;;;;;;;;;;;;;;1.93;100.00;97069.16;5073821;28;19952;-72
2023/02/01 03:33:00;;;;;;;;;;;;;;;1.93;100.00;97071.75;5073031;28;19970;-72
2023/02/01 03:35:33;;;;;;;;;;;;;;;1.92;100.00;97069.28;5072979;28;19946;-72
2023/02/01 03:38:19;;;;;;;;;;;;;;;1.90;100.00;97066.84;5073078;28;20407;-72
2023/02/01 03:40:48;;;;;;;;;;;;;;;1.92;100.00;97064.13;5072245;28;19945;-72
2023/02/01 03:43:17;;;;;;;;;;;;;;;1.93;100.00;97063.16;5073177;28;20004;-72
2023/02/01 03:45:47;;;;;;;;;;;;;;;1.95;100.00;97066.41;5072967;28;19947;-72
2023/02/01 03:48:14;;;;;;;;;;;;;;;1.98;100.00;97051.41;5072932;28;19960;-72
2023/02/01 03:50:44;;;;;;;;;;;;;;;1.98;100.00;97048.81;5072887;28;19946;-72
2023/02/01 03:53:14;;;;;;;;;;;;;;;1.98;100.00;97043.63;5072800;28;19942;-72
2023/02/01 03:55:41;;;;;;;;;;;;;;;2.00;100.00;97035.75;5072813;28;19951;-72
2023/02/01 03:58:14;;;;;;;;;;;;;;;2.01;100.00;97037.34;5072599;28;20397;-72
2023/02/01 04:00:40;;;;;;;;;;;;;;;1.99;100.00;97027.16;5072724;28;19949;-72
2023/02/01 04:03:07;;;;;;;;;;;;;;;1.98;100.00;97017.78;5072635;28;19980;-72
2023/02/01 04:05:33;;;;;;;;;;;;;;;1.97;100.00;97016.13;5072675;28;19950;-72
2023/02/01 04:07:59;;;;;;;;;;;;;;;1.95;100.00;97006.91;5073242;28;19974;-72
2023/02/01 04:10:25;;;;;;;;;;;;;;;1.95;100.00;97007.75;5076105;28;20319;-72
2023/02/01 04:12:50;;;;;;;;;;;;;;;1.95;100.00;97023.25;5076504;28;19950;-72
2023/02/01 04:15:16;;;;;;;;;;;;;;;1.96;100.00;97021.47;5076721;28;20387;-72
2023/02/01 04:17:42;;;;;;;;;;;;;;;1.97;100.00;97013.56;5076209;28;20040;-73
2023/02/01 04:20:08;;;;;;;;;;;;;;;1.99;100.00;97019.38;5076177;28;19956;-73
2023/02/01 04:22:34;;;;;;;;;;;;;;;1.99;100.00;97034.09;5075945;28;19959;-72
2023/02/01 04:25:00;;;;;;;;;;;;;;;1.99;100.00;97034.91;5074984;28;19941;-72
2023/02/01 04:27:26;;;;;;;;;;;;;;;2.03;100.00;97053.53;5075886;28;19960;-72
2023/02/01 04:29:52;;;;;;;;;;;;;;;2.05;100.00;97054.19;5075947;28;19956;-72
2023/02/01 04:32:19;;;;;;;;;;;;;;;2.05;100.00;97041.25;5076117;28;20126;-72
2023/02/01 04:34:45;;;;;;;;;;;;;;;2.07;100.00;97048.88;5075835;28;20333;-72
2023/02/01 04:37:11;;;;;;;;;;;;;;;2.08;100.00;97050.50;5076047;28;19946;-72
2023/02/01 04:39:37;;;;;;;;;;;;;;;2.08;100.00;97037.56;5074965;28;19957;-72
2023/02/01 04:42:03;;;;;;;;;;;;;;;2.09;100.00;97042.59;5064356;28;20376;-72
2023/02/01 04:44:29;;;;;;;;;;;;;;;2.11;100.00;97037.28;5075994;28;19971;-72
2023/02/01 04:46:55;;;;;;;;;;;;;;;2.11;100.00;97034.69;5075499;28;19951;-72
2023/02/01 04:49:25;;;;;;;;;;;;;;;2.11;100.00;97027.75;5075655;28;20013;-72
2023/02/01 04:51:51;;;;;;;;;;;;;;;2.12;100.00;97019.03;5075639;28;19958;-72
2023/02/01 04:54:16;;;;;;;;;;;;;;;2.11;100.00;97032.91;5075635;28;20358;-72
2023/02/01 04:56:42;;;;;;;;;;;;;;;2.10;100.00;97033.06;5075315;28;20015;-72
2023/02/01 04:59:10;;;;;;;;;;;;;;;2.09;100.00;97034.03;5075528;28;19961;-72
2023/02/01 05:01:36;;;;;;;;;;;;;;;2.09;100.00;97034.03;5075405;28;20427;-72
2023/02/01 05:04:02;;;;;;;;;;;;;;;2.07;100.00;97025.59;5075142;28;19962;-72
2023/02/01 05:06:28;;;;;;;;;;;;;;;2.06;100.00;97029.13;5075263;28;19959;-72
2023/02/01 05:08:53;;;;;;;;;;;;;;;2.07;100.00;97020.44;5075009;28;20036;-73
2023/02/01 05:14:04;;;;;;;;;;;;;;;2.04;100.00;97011.19;5074650;28;20404;-72
2023/02/01 05:16:30;;;;;;;;;;;;;;;2.02;100.00;97013.94;5075025;28;19946;-72
2023/02/01 05:18:55;;;;;;;;;;;;;;;2.01;100.00;97024.41;5075499;28;19978;-72
2023/02/01 05:21:21;;;;;;;;;;;;;;;2.00;100.00;97022.81;5074035;28;19951;-72
2023/02/01 05:26:31;;;;;;;;;;;;;;;2.02;100.00;97023.47;5060044;28;19945;-73
2023/02/01 05:28:57;;;;;;;;;;;;;;;2.05;100.00;97033.50;5074598;28;20471;-72
2023/02/01 05:31:23;;;;;;;;;;;;;;;2.07;100.00;97041.13;5075192;28;19973;-72
2023/02/01 05:33:49;;;;;;;;;;;;;;;2.09;100.00;97034.84;5075141;28;20034;-72
2023/02/01 05:36:15;;;;;;;;;;;;;;;2.11;100.00;97048.44;5073404;28;20001;-72
2023/02/01 05:38:41;;;;;;;;;;;;;;;2.11;100.00;97052.81;5074582;28;19950;-72
2023/02/01 05:41:07;;;;;;;;;;;;;;;2.12;100.00;97059.59;5073161;28;19966;-73
2023/02/01 05:43:33;;;;;;;;;;;;;;;2.12;100.00;97057.84;5074317;28;19973;-72
2023/02/01 05:45:59;;;;;;;;;;;;;;;2.12;100.00;97063.00;5074306;28;20419;-72
2023/02/01 05:48:25;;;;;;;;;;;;;;;2.12;100.00;97068.19;5074314;28;19974;-72
2023/02/01 05:50:50;;;;;;;;;;;;;;;2.13;100.00;97069.00;5074491;28;20001;-72
2023/02/01 05:53:16;;;;;;;;;;;;;;;2.12;100.00;97063.00;5074253;28;20305;-72
2023/02/01 05:55:42;;;;;;;;;;;;;;;2.13;100.00;97069.78;5074494;28;19992;-73
2023/02/01 05:58:08;;;;;;;;;;;;;;;2.13;100.00;97067.22;5074054;28;19952;-72
2023/02/01 06:00:34;;;;;;;;;;;;;;;2.16;100.00;97072.09;5074128;28;19950;-73
2023/02/01 06:03:01;;;;;;;;;;;;;;;2.15;100.00;97075.63;5074567;28;19961;-72
2023/02/01 06:05:27;;;;;;;;;;;;;;;2.15;100.00;97070.47;5074235;28;19956;-72
2023/02/01 06:07:53;;;;;;;;;;;;;;;2.15;100.00;97072.25;5074070;28;19959;-72
2023/02/01 06:10:19;;;;;;;;;;;;;;;2.16;100.00;97077.28;5074268;28;19979;-72
2023/02/01 06:12:45;;;;;;;;;;;;;;;2.15;100.00;97065.28;5073807;28;19987;-72
2023/02/01 06:15:18;;;;;;;;;;;;;;;2.17;100.00;97065.16;5074038;28;19958;-72
2023/02/01 06:17:45;;;;;;;;;;;;;;;2.19;100.00;97068.41;5074031;28;19974;-72
2023/02/01 06:20:12;;;;;;;;;;;;;;;2.19;100.00;97076.97;5073935;28;19959;-72
2023/02/01 06:22:38;;;;;;;;;;;;;;;2.21;100.00;97079.41;5073772;28;19948;-71
2023/02/01 06:25:05;;;;;;;;;;;;;;;2.23;100.00;97077.47;5073548;28;19951;-71
2023/02/01 06:27:31;;;;;;;;;;;;;;;2.23;100.00;97077.47;5073668;28;19951;-71
2023/02/01 06:29:57;;;;;;;;;;;;;;;2.20;100.00;97075.97;5073712;28;19958;-72
2023/02/01 06:32:23;;;;;;;;;;;;;;;2.19;100.00;97064.03;5073835;28;19949;-71
2023/02/01 06:34:49;;;;;;;;;;;;;;;2.17;100.00;97065.94;5073856;28;20014;-71
2023/02/01 06:37:15;;;;;;;;;;;;;;;2.17;100.00;97068.53;5073671;28;20436;-72
2023/02/01 06:39:41;;;;;;;;;;;;;;;2.18;100.00;97072.75;5073659;28;19946;-72
2023/02/01 06:42:07;;;;;;;;;;;;;;;2.20;100.00;97064.84;5073561;28;19981;-72
2023/02/01 06:44:32;;;;;;;;;;;;;;;2.21;100.00;97076.81;5073872;28;19963;-72
2023/02/01 06:46:58;;;;;;;;;;;;;;;2.23;100.00;97065.34;5073303;28;20350;-72
2023/02/01 06:49:24;;;;;;;;;;;;;;;2.24;100.00;97060.97;5073256;28;20005;-72
2023/02/01 06:51:50;;;;;;;;;;;;;;;2.23;100.00;97064.53;5073445;28;19954;-72
2023/02/01 06:54:16;;;;;;;;;;;;;;;2.23;100.00;97073.13;5073401;28;19948;-72
2023/02/01 06:56:42;;;;;;;;;;;;;;;2.24;100.00;97077.31;5073194;28;19950;-72
2023/02/01 06:59:08;;;;;;;;;;;;;;;2.23;100.00;97073.13;5073313;28;20002;-71
2023/02/01 07:01:34;;;;;;;;;;;;;;;2.24;100.00;97058.41;5073637;28;20073;-72
2023/02/01 07:03:59;;;;;;;;;;;;;;;2.27;100.00;97062.44;5073582;28;20423;-71
2023/02/01 07:06:25;;;;;;;;;;;;;;;2.29;100.00;97076.88;5072722;28;19954;-71
2023/02/01 07:08:51;;;;;;;;;;;;;;;2.30;100.00;97069.94;5073165;28;19975;-72
2023/02/01 07:11:18;;;;;;;;;;;;;;;2.30;100.00;97070.75;5073273;28;20004;-72
2023/02/01 07:13:44;;;;;;;;;;;;;;;2.29;100.00;97066.53;5073056;28;19964;-72
2023/02/01 07:16:12;;;;;;;;;;;;;;;2.30;100.00;97082.88;5073078;28;19963;-72
2023/02/01 07:18:38;;;;;;;;;;;;;;;2.32;100.00;97089.50;5073327;28;19971;-72
2023/02/01 07:21:04;;;;;;;;;;;;;;;2.33;100.00;97100.69;5071982;28;19958;-72
2023/02/01 07:23:30;;;;;;;;;;;;;;;2.34;100.00;97103.13;5072025;28;19949;-72
2023/02/01 07:25:57;;;;;;;;;;;;;;;2.33;100.00;97096.34;5073462;28;19947;-72
2023/02/01 07:28:24;;;;;;;;;;;;;;;2.34;100.00;97089.38;5073306;28;19982;-72
2023/02/01 07:30:53;;;;;;;;;;;;;;;2.34;100.00;97082.41;5072930;28;19981;-72
2023/02/01 07:33:23;;;;;;;;;;;;;;;2.34;100.00;97086.78;5072886;28;20428;-71
2023/02/01 07:35:50;;;;;;;;;;;;;;;2.34;100.00;97095.34;5072249;28;19952;-72
2023/02/01 07:38:16;;;;;;;;;;;;;;;2.34;100.00;97107.50;5072803;28;19954;-72
2023/02/01 07:40:42;;;;;;;;;;;;;;;2.32;100.00;97102.47;5073217;28;19948;-72
2023/02/01 07:43:08;;;;;;;;;;;;;;;2.34;100.00;97100.53;5073233;28;19979;-72
2023/02/01 07:45:35;;;;;;;;;;;;;;;2.37;100.00;97108.00;5077335;28;19963;-71
2023/02/01 07:48:01;;;;;;;;;;;;;;;2.35;100.00;97102.19;5077022;28;19959;-71
2023/02/01 07:50:26;;;;;;;;;;;;;;;2.36;100.00;97108.16;5076733;28;20483;-71
2023/02/01 07:52:53;;;;;;;;;;;;;;;2.37;100.00;97107.19;5076444;28;19952;-71
2023/02/01 07:55:19;;;;;;;;;;;;;;;2.79;100.00;97104.75;5076724;28;19952;-71
2023/02/01 07:57:45;;;;;;;;;;;;;;;3.01;100.00;97100.00;5076759;28;20404;-71
2023/02/01 08:02:59;;;;;;;;;;;;;;;3.00;100.00;97109.56;5076264;28;19947;-71
2023/02/01 08:05:25;;;;;;;;;;;;;;;2.97;100.00;97091.72;5076744;28;19952;-71
2023/02/01 08:07:51;;;;;;;;;;;;;;;2.94;100.00;97089.47;5075535;28;20284;-70
2023/02/01 08:10:18;;;;;;;;;;;;;;;2.92;100.00;97081.03;5076686;28;20013;-71
2023/02/01 08:12:47;;;;;;;;;;;;;;;2.89;100.00;97089.09;5076220;28;19954;-72
2023/02/01 08:15:15;;;;;;;;;;;;;;;2.88;100.00;97092.66;5076334;28;20448;-71
2023/02/01 08:17:50;;;;;;;;;;;;;;;2.85;100.00;97093.75;5076152;28;19955;-72
2023/02/01 08:20:17;;;;;;;;;;;;;;;2.85;100.00;97092.94;5076174;28;20437;-72
2023/02/01 08:22:43;;;;;;;;;;;;;;;2.87;100.00;97088.44;5076157;28;19978;-71
2023/02/01 08:25:09;;;;;;;;;;;;;;;2.89;100.00;97088.28;5075903;28;19956;-71
2023/02/01 08:27:35;;;;;;;;;;;;;;;2.91;100.00;97075.97;5076018;28;19952;-71
2023/02/01 08:30:02;;;;;;;;;;;;;;;2.93;100.00;97084.41;5075730;28;20301;-72
2023/02/01 08:32:28;;;;;;;;;;;;;;;2.95;100.00;97091.06;5075948;28;19950;-72
2023/02/01 08:34:54;;;;;;;;;;;;;;;2.97;100.00;97094.31;5076126;28;20033;-72
2023/02/01 08:37:19;;;;;;;;;;;;;;;3.01;100.00;97092.25;5075929;28;19958;-72
2023/02/01 08:39:46;;;;;;;;;;;;;;;3.02;100.00;97102.47;5076440;28;19955;-73
2023/02/01 08:44:57;;;;;;;;;;;;;;;3.07;100.00;97099.41;5075703;28;19950;-72
2023/02/01 08:47:23;;;;;;;;;;;;;;;3.06;100.00;97102.94;5075064;28;20069;-72
2023/02/01 08:49:48;;;;;;;;;;;;;;;3.10;100.00;97099.06;5075394;28;19968;-72
2023/02/01 08:52:14;;;;;;;;;;;;;;;3.12;100.00;97093.75;5075847;28;19971;-71
2023/02/01 08:54:41;;;;;;;;;;;;;;;3.12;100.00;97102.31;5074529;28;20369;-72
2023/02/01 08:57:07;;;;;;;;;;;;;;;3.12;100.00;97102.31;5075607;28;20327;-72
2023/02/01 08:59:33;;;;;;;;;;;;;;;3.14;100.00;97108.16;5075277;28;19951;-72
2023/02/01 09:01:59;;;;;;;;;;;;;;;3.14;100.00;97100.41;5075432;28;20005;-72
2023/02/01 09:04:25;;;;;;;;;;;;;;;3.16;100.00;97095.88;5075796;28;20019;-73
2023/02/01 09:06:51;;;;;;;;;;;;;;;3.19;100.00;97102.50;5075403;28;19946;-73
2023/02/01 09:09:16;;;;;;;;;;;;;;;3.20;100.00;97114.53;5075227;28;19973;-72
2023/02/01 09:11:42;;;;;;;;;;;;;;;3.21;100.00;97108.34;5075178;28;19959;-73
2023/02/01 09:14:08;;;;;;;;;;;;;;;3.21;100.00;97121.31;5073986;28;19952;-72
2023/02/01 09:16:34;;;;;;;;;;;;;;;3.23;100.00;97116.78;5074584;28;19950;-73
2023/02/01 09:19:00;;;;;;;;;;;;;;;3.24;100.00;97116.66;5075415;28;19981;-72
2023/02/01 09:21:26;;;;;;;;;;;;;;;3.25;100.00;97126.06;5074803;28;19957;-72
2023/02/01 09:23:51;;;;;;;;;;;;;;;3.46;100.00;97122.22;5075133;28;19948;-72
2023/02/01 09:26:17;;;;;;;;;;;;;;;4.10;100.00;97125.19;5074727;28;19963;-73
2023/02/01 09:28:43;;;;;;;;;;;;;;;4.76;100.00;97125.19;5074875;28;20020;-73
2023/02/01 09:31:09;;;;;;;;;;;;;;;5.11;100.00;97102.41;5074918;28;19959;-73
2023/02/01 09:33:35;;;;;;;;;;;;;;;5.02;100.00;97114.59;5074885;28;19961;-73
2023/02/01 09:36:02;;;;;;;;;;;;;;;4.76;97.90;97114.78;5074697;28;20036;-73
2023/02/01 09:38:28;;;;;;;;;;;;;;;4.48;99.00;97118.53;5074741;28;20417;-73
2023/02/01 09:40:55;;;;;;;;;;;;;;;4.25;97.49;97114.97;5074259;28;19952;-73
2023/02/01 09:43:29;;;;;;;;;;;;;;;4.05;99.38;97128.25;5074782;28;19980;-73
2023/02/01 09:45:55;;;;;;;;;;;;;;;3.95;100.00;97119.81;5074836;28;19966;-73
2023/02/01 09:48:23;;;;;;;;;;;;;;;3.88;100.00;97136.97;5074532;28;20019;-72
2023/02/01 09:50:56;;;;;;;;;;;;;;;3.86;100.00;97141.50;5074458;28;19943;-73
2023/02/01 09:53:25;;;;;;;;;;;;;;;3.80;99.45;97130.00;5074197;28;19954;-73
2023/02/01 09:55:54;;;;;;;;;;;;;;;3.74;100.00;97120.25;5075143;28;19947;-73
2023/02/01 09:58:30;;;;;;;;;;;;;;;3.71;100.00;97141.28;5074322;28;19953;-73
2023/02/01 10:00:57;;;;;;;;;;;;;;;3.71;100.00;97137.91;5074365;28;19947;-73
2023/02/01 10:03:25;;;;;;;;;;;;;;;3.70;99.79;97137.09;5074233;28;19958;-72
2023/02/01 10:06:09;;;;;;;;;;;;;;;3.70;100.00;97133.69;5073728;28;19956;-73
2023/02/01 10:08:35;;;;;;;;;;;;;;;3.70;99.05;97126.72;5066619;28;19947;-73
2023/02/01 10:11:09;;;;;;;;;;;;;;;3.72;99.65;97135.16;5073621;28;19948;-72
2023/02/01 10:13:50;;;;;;;;;;;;;;;3.77;100.00;97138.06;5074441;28;20320;-73
2023/02/01 10:16:21;;;;;;;;;;;;;;;3.80;98.06;97122.22;5074065;28;20350;-73
2023/02/01 10:18:51;;;;;;;;;;;;;;;3.84;99.72;97148.63;5065991;28;19945;-73
2023/02/01 10:21:52;;;;;;;;;;;;;;;3.86;97.59;97147.53;5073660;28;19948;-73
2023/02/01 10:24:21;;;;;;;;;;;;;;;3.90;97.42;97150.59;5012076;28;20652;-73
2023/02/01 10:26:51;;;;;;;;;;;;;;;3.91;97.16;97160.00;5062271;28;19959;-72
2023/02/01 10:29:19;;;;;;;;;;;;;;;3.90;94.51;97135.03;5060751;28;20393;-73
2023/02/01 10:31:45;;;;;;;;;;;;;;;3.92;97.68;97163.41;5074027;28;19951;-74
2023/02/01 10:34:20;;;;;;;;;;;;;;;3.92;95.72;97159.03;5072645;28;20499;-72
2023/02/01 10:36:57;;;;;;;;;;;;;;;3.92;96.00;97163.41;5073868;28;19955;-72
2023/02/01 10:39:23;;;;;;;;;;;;;;;3.93;94.53;97149.47;5073625;28;19955;-72
2023/02/01 10:41:49;;;;;;;;;;;;;;;3.93;95.35;97152.09;5074315;28;19991;-72
2023/02/01 10:44:20;;;;;;;;;;;;;;;3.93;95.28;97163.25;5073649;28;19966;-73
2023/02/01 10:46:46;;;;;;;;;;;;;;;3.94;94.63;97144.13;5074199;28;19948;-72
2023/02/01 10:49:16;;;;;;;;;;;;;;;3.94;94.66;97151.91;5073621;28;20455;-73
2023/02/01 10:51:45;;;;;;;;;;;;;;;3.95;94.97;97153.53;5063142;28;19959;-73
2023/02/01 10:54:20;;;;;;;;;;;;;;;3.96;93.15;97141.38;5073636;28;19956;-72
2023/02/01 10:56:46;;;;;;;;;;;;;;;3.95;92.09;97122.41;5073939;28;19947;-72
2023/02/01 10:59:17;;;;;;;;;;;;;;;3.96;93.80;97143.97;5073964;28;19955;-72
2023/02/01 11:01:45;;;;;;;;;;;;;;;3.96;92.04;97131.00;5057778;28;20416;-72
2023/02/01 11:04:13;;;;;;;;;;;;;;;3.96;92.71;97124.00;5073443;28;19953;-73
2023/02/01 11:06:40;;;;;;;;;;;;;;;3.98;93.91;97118.66;5073493;28;19947;-72
2023/02/01 11:09:06;;;;;;;;;;;;;;;3.96;92.08;97108.44;5073322;28;19970;-73
2023/02/01 11:11:32;;;;;;;;;;;;;;;3.99;92.60;97112.50;5073803;28;20319;-72
2023/02/01 11:14:13;;;;;;;;;;;;;;;4.00;92.42;97116.72;5073300;28;19943;-73
2023/02/01 11:16:40;;;;;;;;;;;;;;;4.00;93.42;97127.09;5073284;28;19946;-73
2023/02/01 11:19:06;;;;;;;;;;;;;;;4.01;94.48;97128.72;5076471;28;20408;-72
2023/02/01 11:21:33;;;;;;;;;;;;;;;3.99;92.78;97121.13;5077740;28;19957;-73
2023/02/01 11:24:06;;;;;;;;;;;;;;;3.98;92.18;97116.88;5077232;28;19942;-72
2023/02/01 11:26:32;;;;;;;;;;;;;;;3.96;93.66;97116.22;5077891;28;20385;-74
2023/02/01 11:29:03;;;;;;;;;;;;;;;3.98;94.08;97129.06;5077138;28;19970;-73
2023/02/01 11:31:29;;;;;;;;;;;;;;;4.01;93.76;97120.94;5077461;28;19952;-73
2023/02/01 11:33:59;;;;;;;;;;;;;;;4.02;93.08;97114.78;5077299;28;19974;-73
2023/02/01 11:36:27;;;;;;;;;;;;;;;4.04;90.88;97087.69;5078032;28;19951;-73
2023/02/01 11:39:06;;;;;;;;;;;;;;;4.08;91.59;97093.38;5077174;28;19957;-74
2023/02/01 11:41:32;;;;;;;;;;;;;;;4.14;89.28;97073.78;5076948;28;19955;-73
2023/02/01 11:44:00;;;;;;;;;;;;;;;4.18;90.94;97086.25;5077166;28;19951;-73
2023/02/01 11:46:32;;;;;;;;;;;;;;;4.22;88.51;97063.34;5077132;28;19954;-73
2023/02/01 11:49:17;;;;;;;;;;;;;;;4.43;100.00;97101.81;5076946;28;19946;-72
2023/02/01 11:51:49;;;;;;;;;;;;;;;4.61;86.45;97019.34;5075623;28;19947;-72
2023/02/01 11:54:34;;;;;;;;;;;;;;;5.00;100.00;97085.38;5076671;28;20406;-73
2023/02/01 11:57:03;;;;;;;;;;;;;;;5.21;83.91;96981.59;5077327;28;19947;-73
2023/02/01 11:59:41;;;;;;;;;;;;;;;5.07;83.95;96990.91;5076851;28;19946;-73
2023/02/01 12:02:09;;;;;;;;;;;;;;;4.91;85.71;97000.56;5076943;28;19951;-73
2023/02/01 12:04:51;;;;;;;;;;;;;;;4.75;85.06;96991.88;5076511;28;19951;-73
2023/02/01 12:07:20;;;;;;;;;;;;;;;4.63;84.68;97001.78;5076638;28;19944;-73
2023/02/01 12:09:53;;;;;;;;;;;;;;;4.55;86.09;97009.59;5076592;28;19987;-73
2023/02/01 12:12:24;;;;;;;;;;;;;;;4.47;85.58;96984.47;5076779;28;19955;-73
2023/02/01 12:14:50;;;;;;;;;;;;;;;4.42;83.09;96970.38;5076667;28;19974;-73
2023/02/01 12:17:36;;;;;;;;;;;;;;;4.42;86.97;97004.94;5076197;28;19950;-73
2023/02/01 12:20:03;;;;;;;;;;;;;;;4.46;86.93;97002.81;5076982;28;19954;-73
2023/02/01 12:22:51;;;;;;;;;;;;;;;4.46;83.06;96964.66;5076172;28;19954;-73
2023/02/01 12:25:21;;;;;;;;;;;;;;;4.41;83.32;96974.75;5076129;28;19951;-73
2023/02/01 12:28:05;;;;;;;;;;;;;;;4.38;86.25;97008.81;5076125;28;19946;-73
2023/02/01 12:30:50;;;;;;;;;;;;;;;4.31;83.30;97001.88;5076363;28;19972;-73
2023/02/01 12:33:19;;;;;;;;;;;;;;;4.25;86.57;97027.50;5076085;28;19950;-73
2023/02/01 12:36:07;;;;;;;;;;;;;;;4.24;87.08;97038.88;5076011;28;19953;-73
2023/02/01 12:38:45;;;;;;;;;;;;;;;4.24;87.62;97049.25;5076040;28;19949;-73
2023/02/01 12:41:20;;;;;;;;;;;;;;;4.25;87.70;97045.69;5075944;28;19957;-73
2023/02/01 12:43:46;;;;;;;;;;;;;;;4.26;87.14;97043.88;5074770;28;19976;-73
2023/02/01 12:46:16;;;;;;;;;;;;;;;4.24;87.15;97031.09;5075739;28;20042;-74
2023/02/01 12:48:57;;;;;;;;;;;;;;;4.23;87.49;97032.06;5075769;28;19950;-73
2023/02/01 12:51:26;;;;;;;;;;;;;;;4.19;86.38;97029.94;5075868;28;19946;-74
2023/02/01 12:53:55;;;;;;;;;;;;;;;4.17;86.98;97013.72;5067231;28;19949;-73
2023/02/01 12:56:31;;;;;;;;;;;;;;;4.16;87.85;97035.44;5075791;28;19961;-73
2023/02/01 12:59:00;;;;;;;;;;;;;;;4.13;86.98;97015.81;5075641;28;20392;-73
2023/02/01 13:01:31;;;;;;;;;;;;;;;4.11;88.62;97035.13;5075627;28;19946;-74
2023/02/01 13:04:13;;;;;;;;;;;;;;;4.09;88.35;97027.50;5075919;28;19948;-73
2023/02/01 13:06:43;;;;;;;;;;;;;;;4.09;88.62;97030.09;5075823;28;19950;-73
2023/02/01 13:09:24;;;;;;;;;;;;;;;4.06;87.90;97031.25;5075185;28;19950;-73
2023/02/01 13:11:52;;;;;;;;;;;;;;;4.06;89.12;97035.63;5075145;28;19949;-74
2023/02/01 13:14:38;;;;;;;;;;;;;;;4.06;88.96;97033.03;5062748;28;19944;-73
2023/02/01 13:17:05;;;;;;;;;;;;;;;4.04;89.23;97037.56;5074667;28;19947;-73
2023/02/01 13:19:31;;;;;;;;;;;;;;;4.03;89.57;97056.69;5073619;28;19956;-74
2023/02/01 13:22:07;;;;;;;;;;;;;;;4.00;89.88;97054.44;5075047;28;19958;-73
2023/02/01 13:24:45;;;;;;;;;;;;;;;3.98;90.25;97053.78;5075406;28;19955;-73
2023/02/01 13:27:14;;;;;;;;;;;;;;;3.94;88.72;97047.28;5062525;28;19952;-73
2023/02/01 13:30:01;;;;;;;;;;;;;;;3.91;89.44;97051.03;5074651;28;19965;-74